Time;durP1;ratioP1;P1;durP2;ratioP2;P2;SDS_P1;SDS_P2;PMS_P1;PMS_P2;Temp;Humidity;BMP_temperature;BMP_pressure;BME280_temperature;BME280_humidity;BME280_pressure;Samples;Min_cycle;Max_cycle;Signal;HPM_P1;HPM_P2
2021/12/23 00:00:00;;;;;;;19.57;11.03;;;;;;;-1.98;82.48;101186.91;5051911;28;20305;-86
2021/12/23 00:02:27;;;;;;;15.37;10.00;;;;;;;-1.96;82.44;101186.88;5049661;28;20294;-87
2021/12/23 00:04:59;;;;;;;14.23;9.53;;;;;;;-1.93;82.42;101181.66;5051370;28;20722;-85
2021/12/23 00:07:29;;;;;;;13.17;9.83;;;;;;;-1.94;82.24;101170.34;5051676;28;20225;-86
2021/12/23 00:10:08;;;;;;;17.10;10.17;;;;;;;-1.93;82.65;101168.59;5051591;28;20856;-84
2021/12/23 00:12:37;;;;;;;14.10;9.83;;;;;;;-1.92;82.35;101160.78;5049294;28;20228;-83
2021/12/23 00:15:09;;;;;;;16.33;9.97;;;;;;;-1.92;82.31;101158.16;5053347;28;20212;-83
2021/12/23 00:17:58;;;;;;;16.27;9.73;;;;;;;-1.92;82.51;101149.47;5051980;28;20229;-82
2021/12/23 00:23:25;;;;;;;14.73;9.47;;;;;;;-1.95;82.56;101145.13;5052547;28;20288;-84
2021/12/23 00:25:54;;;;;;;15.33;9.83;;;;;;;-1.94;82.13;101146.00;5056997;28;20193;-84
2021/12/23 00:28:21;;;;;;;16.90;10.50;;;;;;;-1.94;82.71;101140.75;5055571;28;20225;-85
2021/12/23 00:30:49;;;;;;;14.33;9.83;;;;;;;-1.94;82.60;101135.53;5056449;28;20205;-85
2021/12/23 00:33:16;;;;;;;15.07;10.00;;;;;;;-1.94;82.77;101135.53;5053097;28;20217;-84
2021/12/23 00:35:43;;;;;;;18.00;10.60;;;;;;;-1.95;82.31;101125.97;5051906;28;20201;-84
2021/12/23 00:38:17;;;;;;;17.03;10.00;;;;;;;-1.98;82.56;101120.78;5055871;28;20236;-85
2021/12/23 00:40:46;;;;;;;15.07;10.23;;;;;;;-1.95;82.62;101120.75;5051614;28;20208;-84
2021/12/23 00:43:13;;;;;;;16.40;11.10;;;;;;;-1.96;82.34;101104.22;5056311;28;20767;-85
2021/12/23 00:45:40;;;;;;;13.67;9.57;;;;;;;-1.96;82.23;101090.31;5053006;28;20218;-84
2021/12/23 00:48:11;;;;;;;16.37;10.87;;;;;;;-1.95;82.33;101090.31;5054508;28;20233;-85
2021/12/23 00:50:40;;;;;;;15.63;9.93;;;;;;;-1.93;82.59;101095.50;5052539;28;20205;-84
2021/12/23 00:53:10;;;;;;;16.60;10.53;;;;;;;-1.91;82.21;101099.00;5055404;28;20232;-84
2021/12/23 00:55:38;;;;;;;14.67;9.77;;;;;;;-1.89;82.67;101089.41;5041488;28;20278;-84
2021/12/23 00:58:05;;;;;;;17.13;11.77;;;;;;;-1.87;82.24;101082.44;5057997;28;20244;-84
2021/12/23 01:00:34;;;;;;;17.30;10.53;;;;;;;-1.88;82.23;101076.34;5050204;28;20230;-85
2021/12/23 01:03:03;;;;;;;17.30;9.70;;;;;;;-1.83;82.49;101073.72;5056539;28;20675;-85
2021/12/23 01:05:33;;;;;;;16.87;10.03;;;;;;;-1.82;82.65;101062.41;5054126;28;20586;-86
2021/12/23 01:08:00;;;;;;;18.30;10.37;;;;;;;-1.82;82.24;101051.97;5045914;28;20221;-85
2021/12/23 01:10:28;;;;;;;16.67;10.73;;;;;;;-1.80;82.35;101048.47;5054094;28;20815;-86
2021/12/23 01:13:01;;;;;;;15.07;10.17;;;;;;;-1.79;82.37;101047.56;5054889;28;20201;-86
2021/12/23 01:18:29;;;;;;;19.17;10.10;;;;;;;-1.79;82.34;101031.03;5043521;28;20675;-86
2021/12/23 01:21:14;;;;;;;18.07;11.30;;;;;;;-1.77;82.43;101031.88;5054502;28;20206;-86
2021/12/23 01:23:48;;;;;;;14.70;10.43;;;;;;;-1.76;82.54;101029.28;5052204;28;20205;-86
2021/12/23 01:26:24;;;;;;;15.80;10.70;;;;;;;-1.75;82.13;101022.31;5053145;28;20204;-87
2021/12/23 01:28:56;;;;;;;15.43;10.17;;;;;;;-1.76;82.23;101017.97;5057356;28;20318;-86
2021/12/23 01:31:26;;;;;;;16.37;10.77;;;;;;;-1.75;82.15;101011.88;5059941;28;20209;-84
2021/12/23 01:33:54;;;;;;;16.77;10.57;;;;;;;-1.73;82.27;101019.69;5042143;28;20294;-86
2021/12/23 01:36:22;;;;;;;18.17;11.33;;;;;;;-1.73;82.13;101017.94;5044610;28;20206;-86
2021/12/23 01:38:50;;;;;;;13.93;9.47;;;;;;;-1.69;82.34;101013.56;5049996;28;20245;-86
2021/12/23 01:41:17;;;;;;;17.53;11.00;;;;;;;-1.68;81.90;101004.84;5049628;28;20214;-86
2021/12/23 01:43:44;;;;;;;16.63;10.33;;;;;;;-1.68;81.76;100997.03;5055376;28;20664;-86
2021/12/23 01:46:10;;;;;;;16.73;10.57;;;;;;;-1.67;82.10;100994.41;5054926;28;20209;-86
2021/12/23 01:48:37;;;;;;;16.23;9.73;;;;;;;-1.65;81.80;100986.56;5048933;28;20228;-87
2021/12/23 01:51:03;;;;;;;16.57;10.23;;;;;;;-1.64;81.57;100988.28;5057714;28;20205;-87
2021/12/23 01:53:31;;;;;;;14.97;9.50;;;;;;;-1.62;81.60;100978.72;5049661;28;20206;-86
2021/12/23 01:55:59;;;;;;;13.67;9.37;;;;;;;-1.61;81.31;100994.34;5044127;28;20201;-86
2021/12/23 01:58:26;;;;;;;14.33;9.50;;;;;;;-1.58;81.53;100983.88;5050800;28;20236;-86
2021/12/23 02:00:53;;;;;;;16.70;9.87;;;;;;;-1.55;81.45;100989.06;5045223;28;20201;-86
2021/12/23 02:03:20;;;;;;;16.00;9.57;;;;;;;-1.52;81.37;100981.22;5043288;28;20252;-85
2021/12/23 02:05:47;;;;;;;14.93;9.80;;;;;;;-1.51;81.44;100985.56;5049498;28;20199;-87
2021/12/23 02:08:14;;;;;;;15.67;9.93;;;;;;;-1.46;81.10;100977.69;5061647;28;20229;-87
2021/12/23 02:10:44;;;;;;;15.13;10.00;;;;;;;-1.45;80.83;100971.59;5041375;28;20221;-85
2021/12/23 02:13:11;;;;;;;13.20;9.03;;;;;;;-1.44;80.84;100971.56;5040630;28;20226;-86
2021/12/23 02:15:37;;;;;;;13.50;8.83;;;;;;;-1.42;80.52;100964.56;5051945;28;20229;-86
2021/12/23 02:18:04;;;;;;;12.30;8.43;;;;;;;-1.41;80.59;100957.59;5055564;22;20239;-70
2021/12/23 02:20:34;;;;;;;12.03;9.37;;;;;;;-1.40;80.45;100935.81;5051087;28;20679;-69
2021/12/23 02:23:01;;;;;;;14.77;9.70;;;;;;;-1.37;80.45;100938.41;5051287;28;20198;-71
2021/12/23 02:25:28;;;;;;;15.57;9.03;;;;;;;-1.35;80.28;100939.25;5050459;28;20208;-70
2021/12/23 02:27:57;;;;;;;14.53;9.70;;;;;;;-1.34;79.98;100932.28;5034088;28;20671;-69
2021/12/23 02:30:27;;;;;;;13.60;9.23;;;;;;;-1.33;80.11;100934.03;5041737;28;20209;-70
2021/12/23 02:32:54;;;;;;;15.63;9.90;;;;;;;-1.33;79.54;100936.63;5067252;22;20231;-73
2021/12/23 02:35:22;;;;;;;14.83;10.03;;;;;;;-1.31;79.64;100945.31;5046071;28;20201;-73
2021/12/23 02:37:50;;;;;;;17.73;10.00;;;;;;;-1.30;79.13;100927.03;5035681;28;20226;-71
2021/12/23 02:40:27;;;;;;;16.30;10.10;;;;;;;-1.29;79.24;100927.88;5045087;28;20215;-72
2021/12/23 02:42:55;;;;;;;16.87;10.33;;;;;;;-1.29;79.37;100930.50;5035225;28;20225;-73
2021/12/23 02:45:21;;;;;;;15.77;9.90;;;;;;;-1.28;79.28;100927.00;5030370;28;20686;-73
2021/12/23 02:47:48;;;;;;;18.77;10.17;;;;;;;-1.27;79.54;100921.75;5031445;28;20206;-72
2021/12/23 02:50:14;;;;;;;12.70;8.40;;;;;;;-1.25;79.21;100913.88;5030550;28;20217;-71
2021/12/23 02:52:41;;;;;;;16.70;9.33;;;;;;;-1.23;78.90;100906.91;5030618;28;20237;-73
2021/12/23 02:55:09;;;;;;;15.93;8.63;;;;;;;-1.21;78.74;100913.84;5030204;28;20573;-73
2021/12/23 02:57:36;;;;;;;14.50;8.83;;;;;;;-1.20;78.98;100896.41;5030402;28;20237;-73
2021/12/23 03:00:04;;;;;;;13.67;9.50;;;;;;;-1.19;78.35;100891.16;5031221;28;20211;-73
2021/12/23 03:02:31;;;;;;;15.70;9.50;;;;;;;-1.16;78.36;100885.91;5030891;28;20608;-73
2021/12/23 03:04:57;;;;;;;15.20;9.57;;;;;;;-1.17;78.48;100870.25;5031011;28;20213;-71
2021/12/23 03:07:24;;;;;;;15.43;9.60;;;;;;;-1.16;78.50;100875.47;5032101;28;20210;-73
2021/12/23 03:09:50;;;;;;;14.90;9.77;;;;;;;-1.16;78.06;100869.38;5029780;28;20217;-71
2021/12/23 03:12:18;;;;;;;15.53;10.40;;;;;;;-1.16;77.94;100862.41;5030507;28;20741;-70
2021/12/23 03:14:45;;;;;;;14.43;9.93;;;;;;;-1.16;78.22;100858.91;5030417;28;20214;-73
2021/12/23 03:17:11;;;;;;;15.43;9.73;;;;;;;-1.16;78.26;100853.69;5030746;28;20210;-73
2021/12/23 03:19:38;;;;;;;14.23;9.40;;;;;;;-1.16;78.05;100851.06;5030345;28;20229;-72
2021/12/23 03:22:05;;;;;;;15.60;9.73;;;;;;;-1.16;77.93;100843.22;5029981;28;20225;-73
2021/12/23 03:24:31;;;;;;;15.17;9.00;;;;;;;-1.16;78.07;100849.31;5030770;28;20297;-72
2021/12/23 03:26:58;;;;;;;13.37;9.23;;;;;;;-1.16;78.06;100843.22;5041098;28;20202;-72
2021/12/23 03:29:26;;;;;;;15.63;10.00;;;;;;;-1.16;77.97;100844.09;5030750;28;20202;-72
2021/12/23 03:31:54;;;;;;;13.73;9.57;;;;;;;-1.15;78.04;100850.19;5030325;28;20302;-71
2021/12/23 03:34:20;;;;;;;15.03;9.27;;;;;;;-1.14;77.27;100842.34;5032664;28;20198;-72
2021/12/23 03:36:47;;;;;;;14.93;9.67;;;;;;;-1.13;77.65;100827.53;5029504;28;20587;-72
2021/12/23 03:39:14;;;;;;;14.13;8.63;;;;;;;-1.12;77.70;100835.34;5029795;28;20237;-73
2021/12/23 03:41:40;;;;;;;17.87;9.97;;;;;;;-1.12;77.57;100837.09;5029830;28;20209;-72
2021/12/23 03:44:07;;;;;;;13.90;9.80;;;;;;;-1.11;77.21;100837.06;5029244;28;20230;-72
2021/12/23 03:46:37;;;;;;;17.67;10.60;;;;;;;-1.09;77.53;100824.00;5030610;28;20213;-72
2021/12/23 03:49:04;;;;;;;16.27;9.70;;;;;;;-1.07;77.43;100822.19;5032940;28;20212;-72
2021/12/23 03:51:31;;;;;;;18.10;9.80;;;;;;;-1.06;77.21;100810.84;5041460;28;20213;-72
2021/12/23 03:53:57;;;;;;;12.77;8.97;;;;;;;-1.04;77.43;100806.47;5032464;28;20230;-72
2021/12/23 03:56:24;;;;;;;13.17;8.83;;;;;;;-1.02;76.96;100801.22;5035794;28;20203;-72
2021/12/23 03:58:50;;;;;;;15.87;9.70;;;;;;;-1.01;76.64;100785.53;5048097;28;20721;-72
2021/12/23 04:01:17;;;;;;;14.17;8.60;;;;;;;-1.01;76.41;100782.91;5029618;28;20210;-72
2021/12/23 04:03:45;;;;;;;14.00;9.10;;;;;;;-1.01;76.71;100775.06;5029753;28;20218;-73
2021/12/23 04:06:12;;;;;;;15.53;10.17;;;;;;;-1.00;76.67;100779.41;5031877;28;20210;-73
2021/12/23 04:08:38;;;;;;;14.23;10.10;;;;;;;-1.00;76.57;100782.03;5030155;28;20206;-72
2021/12/23 04:11:05;;;;;;;14.27;9.80;;;;;;;-0.99;76.73;100783.75;5031269;28;20225;-72
2021/12/23 04:13:31;;;;;;;12.60;8.63;;;;;;;-0.98;76.83;100767.19;5030231;28;20226;-72
2021/12/23 04:15:58;;;;;;;15.87;9.93;;;;;;;-0.98;76.86;100768.94;5029043;28;20211;-72
2021/12/23 04:18:24;;;;;;;14.00;10.13;;;;;;;-0.98;76.36;100759.34;5032455;28;20245;-72
2021/12/23 04:20:55;;;;;;;15.63;10.03;;;;;;;-0.96;76.38;100751.47;5029654;28;20220;-72
2021/12/23 04:23:23;;;;;;;18.30;11.27;;;;;;;-0.98;76.52;100748.88;5028611;28;20309;-72
2021/12/23 04:25:50;;;;;;;17.07;10.60;;;;;;;-0.99;76.54;100741.94;5029166;28;20206;-72
2021/12/23 04:28:16;;;;;;;15.70;10.43;;;;;;;-0.98;76.80;100746.28;5031195;28;20217;-72
2021/12/23 04:30:43;;;;;;;15.70;10.47;;;;;;;-0.96;76.57;100751.47;5025669;28;21149;-72
2021/12/23 04:33:10;;;;;;;15.37;10.00;;;;;;;-0.96;76.61;100747.13;5028179;28;20226;-73
2021/12/23 04:35:37;;;;;;;14.00;10.53;;;;;;;-0.96;76.50;100727.97;5022127;28;20391;-72
2021/12/23 04:38:06;;;;;;;13.60;9.30;;;;;;;-0.96;76.14;100733.19;5028072;28;20706;-72
2021/12/23 04:40:34;;;;;;;13.03;8.77;;;;;;;-0.94;76.45;100740.13;5028082;28;20202;-73
2021/12/23 04:43:01;;;;;;;14.23;10.00;;;;;;;-0.94;76.32;100734.91;5024707;28;20222;-72
2021/12/23 04:45:28;;;;;;;13.03;9.73;;;;;;;-0.92;76.30;100732.25;5026962;28;20207;-71
2021/12/23 04:47:55;;;;;;;15.53;9.87;;;;;;;-0.92;76.39;100740.09;5021502;28;20556;-73
2021/12/23 04:50:22;;;;;;;16.30;10.57;;;;;;;-0.91;76.22;100732.25;5020466;28;20229;-72
2021/12/23 04:52:49;;;;;;;15.23;10.37;;;;;;;-0.89;76.18;100743.50;5026352;28;20263;-73
2021/12/23 04:55:17;;;;;;;14.03;9.57;;;;;;;-0.86;76.02;100746.09;5029756;28;20207;-70
2021/12/23 04:57:44;;;;;;;17.87;9.53;;;;;;;-0.84;75.92;100739.09;5021846;28;20213;-72
2021/12/23 05:00:14;;;;;;;14.23;9.50;;;;;;;-0.81;75.88;100736.44;5020447;28;20229;-71
2021/12/23 05:02:41;;;;;;;13.80;9.57;;;;;;;-0.81;75.71;100728.56;5021414;28;20222;-73
2021/12/23 05:05:09;;;;;;;14.97;10.17;;;;;;;-0.79;75.68;100723.34;5020886;28;20210;-71
2021/12/23 05:07:36;;;;;;;17.10;11.73;;;;;;;-0.79;75.83;100703.28;5027683;28;20206;-72
2021/12/23 05:10:03;;;;;;;14.20;9.33;;;;;;;-0.76;75.38;100703.22;5032186;28;20209;-72
2021/12/23 05:12:31;;;;;;;14.00;9.53;;;;;;;-0.75;75.31;100704.97;5027292;28;20253;-72
2021/12/23 05:14:58;;;;;;;17.37;9.63;;;;;;;-0.73;75.10;100708.41;5032808;28;20570;-73
2021/12/23 05:17:24;;;;;;;14.70;9.87;;;;;;;-0.71;75.32;100708.38;5029300;28;20214;-73
2021/12/23 05:19:51;;;;;;;13.53;9.97;;;;;;;-0.70;75.23;100702.25;5033991;28;20229;-73
2021/12/23 05:22:17;;;;;;;14.40;9.57;;;;;;;-0.66;74.90;100682.13;5023277;28;20225;-72
2021/12/23 05:24:44;;;;;;;14.83;10.27;;;;;;;-0.67;75.30;100696.97;5024286;28;20218;-71
2021/12/23 05:27:10;;;;;;;14.73;10.80;;;;;;;-0.66;75.03;100683.00;5027071;28;20218;-71
2021/12/23 05:29:38;;;;;;;18.00;10.37;;;;;;;-0.66;75.13;100677.78;5035611;28;20843;-72
2021/12/23 05:32:06;;;;;;;15.03;10.20;;;;;;;-0.64;74.72;100675.13;5031670;28;20221;-72
2021/12/23 05:34:32;;;;;;;14.27;9.50;;;;;;;-0.63;75.04;100679.47;5032777;28;20202;-73
2021/12/23 05:36:59;;;;;;;16.70;11.50;;;;;;;-0.62;74.83;100678.59;5024946;28;20213;-73
2021/12/23 05:39:26;;;;;;;13.63;10.00;;;;;;;-0.62;74.79;100679.47;5030286;28;20229;-73
2021/12/23 05:41:52;;;;;;;15.77;11.30;;;;;;;-0.61;74.76;100673.34;5033175;28;20213;-72
2021/12/23 05:44:19;;;;;;;18.30;11.23;;;;;;;-0.61;74.89;100660.25;5034087;28;20217;-71
2021/12/23 05:46:46;;;;;;;14.20;10.90;;;;;;;-0.60;74.55;100674.19;5038974;28;20667;-72
2021/12/23 05:49:13;;;;;;;14.00;10.50;;;;;;;-0.59;74.57;100666.31;5031741;28;20217;-73
2021/12/23 05:51:40;;;;;;;16.23;11.43;;;;;;;-0.60;74.79;100664.59;5032569;28;20539;-72
2021/12/23 05:54:07;;;;;;;16.00;11.17;;;;;;;-0.59;75.21;100647.16;5034158;28;20725;-72
2021/12/23 05:56:33;;;;;;;14.87;11.00;;;;;;;-0.61;74.78;100649.78;5031959;28;20206;-72
2021/12/23 05:59:00;;;;;;;16.63;11.27;;;;;;;-0.60;74.85;100642.81;5031869;28;20234;-72
2021/12/23 06:01:27;;;;;;;17.10;11.40;;;;;;;-0.60;74.78;100642.81;5033251;28;20210;-72
2021/12/23 06:03:55;;;;;;;18.67;12.10;;;;;;;-0.60;75.27;100650.66;5031648;28;20237;-72
2021/12/23 06:06:22;;;;;;;15.43;10.67;;;;;;;-0.60;75.18;100640.19;5036237;28;20213;-71
2021/12/23 06:08:48;;;;;;;19.43;12.17;;;;;;;-0.60;75.02;100621.88;5032542;28;20222;-72
2021/12/23 06:11:15;;;;;;;18.60;11.90;;;;;;;-0.60;75.08;100608.81;5032137;28;20206;-71
2021/12/23 06:13:42;;;;;;;19.10;12.10;;;;;;;-0.61;75.34;100602.72;5030370;28;20228;-72
2021/12/23 06:16:08;;;;;;;16.57;11.20;;;;;;;-0.59;75.54;100585.25;5033569;28;20599;-73
2021/12/23 06:18:35;;;;;;;16.53;11.27;;;;;;;-0.61;75.87;100581.78;5032926;28;20233;-71
2021/12/23 06:21:03;;;;;;;18.73;10.90;;;;;;;-0.61;75.74;100562.63;5033545;28;20202;-73
2021/12/23 06:23:30;;;;;;;16.90;11.03;;;;;;;-0.63;75.79;100538.25;5030754;28;20241;-70
2021/12/23 06:25:57;;;;;;;17.27;12.27;;;;;;;-0.63;75.62;100525.16;5031335;28;20214;-73
2021/12/23 06:28:24;;;;;;;17.97;10.47;;;;;;;-0.62;75.52;100511.19;5029710;28;20699;-72
2021/12/23 06:30:50;;;;;;;16.77;11.10;;;;;;;-0.60;75.34;100506.81;5032975;28;20202;-72
2021/12/23 06:33:17;;;;;;;19.17;11.33;;;;;;;-0.61;75.71;100512.94;5048192;28;20241;-72
2021/12/23 06:35:43;;;;;;;18.83;12.10;;;;;;;-0.61;75.73;100500.72;5034139;28;20218;-73
2021/12/23 06:38:12;;;;;;;16.50;11.23;;;;;;;-0.61;75.33;100486.78;5033022;28;20209;-72
2021/12/23 06:40:40;;;;;;;17.03;11.30;;;;;;;-0.61;75.83;100492.88;5032875;28;20594;-73
2021/12/23 06:43:08;;;;;;;19.23;11.87;;;;;;;-0.62;75.75;100516.44;5031055;28;20234;-72
2021/12/23 06:45:34;;;;;;;21.07;12.77;;;;;;;-0.63;75.71;100548.69;5029443;28;20202;-72
2021/12/23 06:48:01;;;;;;;19.57;11.43;;;;;;;-0.61;76.24;100539.06;5030241;28;20289;-72
2021/12/23 06:50:28;;;;;;;23.60;12.63;;;;;;;-0.58;75.91;100544.25;5036325;28;20209;-72
2021/12/23 06:52:55;;;;;;;16.80;10.97;;;;;;;-0.57;75.88;100556.44;5029073;28;20233;-72
2021/12/23 06:55:22;;;;;;;19.10;12.07;;;;;;;-0.54;75.67;100546.78;5032421;28;20210;-71
2021/12/23 06:57:54;;;;;;;18.70;11.43;;;;;;;-0.50;76.20;100539.72;5032041;28;20796;-72
2021/12/23 07:00:21;;;;;;;19.00;12.03;;;;;;;-0.46;76.02;100557.94;5028800;28;20226;-72
2021/12/23 07:02:48;;;;;;;16.87;9.23;;;;;;;-0.44;75.83;100569.25;5028235;28;20718;-72
2021/12/23 07:05:15;;;;;;;14.90;10.37;;;;;;;-0.38;75.98;100557.81;5033653;28;20276;-73
2021/12/23 07:07:52;;;;;;;18.80;10.97;;;;;;;-0.33;75.88;100555.94;5032665;28;20287;-73
2021/12/23 07:10:19;;;;;;;15.07;11.17;;;;;;;-0.28;76.07;100558.47;5029752;28;20212;-72
2021/12/23 07:12:47;;;;;;;19.37;11.33;;;;;;;-0.24;75.64;100537.44;5024135;28;20644;-72
2021/12/23 07:15:14;;;;;;;14.60;10.87;;;;;;;-0.23;75.66;100536.56;5024648;28;20202;-72
2021/12/23 07:17:40;;;;;;;17.57;11.90;;;;;;;-0.23;75.85;100547.03;5026405;28;20207;-72
2021/12/23 07:20:08;;;;;;;22.27;12.83;;;;;;;-0.21;75.75;100547.84;5020857;28;20230;-72
2021/12/23 07:22:35;;;;;;;18.87;11.87;;;;;;;-0.18;75.94;100520.75;5021864;28;20227;-72
2021/12/23 07:25:01;;;;;;;19.80;13.10;;;;;;;-0.18;75.87;100498.03;5022295;28;20209;-72
2021/12/23 07:27:28;;;;;;;17.70;12.37;;;;;;;-0.18;75.92;100520.75;5020709;28;20659;-73
2021/12/23 07:29:56;;;;;;;19.63;12.20;;;;;;;-0.18;76.23;100526.00;5023466;28;20210;-72
2021/12/23 07:32:22;;;;;;;17.47;12.17;;;;;;;-0.16;75.75;100530.28;5022408;28;20238;-72
2021/12/23 07:34:49;;;;;;;20.37;13.10;;;;;;;-0.16;75.76;100538.13;5019958;28;20217;-72
2021/12/23 07:37:15;;;;;;;18.30;12.43;;;;;;;-0.16;76.26;100524.19;5022173;28;20206;-72
2021/12/23 07:39:42;;;;;;;17.53;11.90;;;;;;;-0.14;75.89;100509.31;5024358;28;20229;-72
2021/12/23 07:42:14;;;;;;;15.97;11.67;;;;;;;-0.13;75.99;100500.56;5021003;28;20229;-72
2021/12/23 07:44:41;;;;;;;18.83;12.77;;;;;;;-0.12;75.79;100489.19;5021119;28;20211;-71
2021/12/23 07:47:09;;;;;;;20.83;11.33;;;;;;;-0.12;75.63;100500.53;5019472;28;20234;-72
2021/12/23 07:49:36;;;;;;;19.57;12.00;;;;;;;-0.11;75.51;100499.63;5023376;28;20215;-72
2021/12/23 07:52:03;;;;;;;20.40;13.43;;;;;;;-0.12;75.67;100513.63;5023519;28;20229;-72
2021/12/23 07:54:30;;;;;;;19.37;12.80;;;;;;;-0.12;75.51;100511.00;5025779;28;20210;-72
2021/12/23 07:56:56;;;;;;;18.77;12.43;;;;;;;-0.12;75.47;100518.84;5018454;28;20206;-72
2021/12/23 07:59:23;;;;;;;19.33;12.27;;;;;;;-0.12;75.70;100500.53;5022448;28;20219;-72
2021/12/23 08:01:49;;;;;;;19.60;12.33;;;;;;;-0.10;75.39;100505.72;5015130;28;20222;-72
2021/12/23 08:04:17;;;;;;;20.40;12.23;;;;;;;-0.08;75.15;100488.22;5024904;28;20642;-72
2021/12/23 08:06:47;;;;;;;20.60;12.97;;;;;;;-0.06;75.21;100476.84;5016647;28;20656;-72
2021/12/23 08:09:13;;;;;;;20.37;13.30;;;;;;;-0.08;75.12;100481.25;5020357;28;20708;-72
2021/12/23 08:11:40;;;;;;;19.50;12.90;;;;;;;-0.08;74.95;100451.59;5019672;28;20201;-72
2021/12/23 08:14:06;;;;;;;21.43;13.37;;;;;;;-0.05;75.00;100456.75;5019231;28;20233;-72
2021/12/23 08:16:33;;;;;;;21.17;13.50;;;;;;;-0.06;74.58;100468.13;5019952;28;20225;-72
2021/12/23 08:18:59;;;;;;;22.50;13.73;;;;;;;-0.05;74.69;100483.81;5022373;28;20206;-72
2021/12/23 08:21:28;;;;;;;21.60;14.40;;;;;;;-0.06;74.86;100466.38;5019023;28;20202;-71
2021/12/23 08:23:55;;;;;;;17.70;12.63;;;;;;;-0.04;74.77;100468.94;5022058;28;20711;-72
2021/12/23 08:26:22;;;;;;;20.47;13.20;;;;;;;-0.02;74.88;100457.56;5020236;28;20248;-72
2021/12/23 08:28:49;;;;;;;20.27;12.43;;;;;;;0.00;74.86;100460.13;5019533;28;20199;-72
2021/12/23 08:31:15;;;;;;;21.97;13.80;;;;;;;-0.01;74.78;100454.03;5022676;28;20238;-72
2021/12/23 08:33:42;;;;;;;21.33;13.87;;;;;;;0.00;74.74;100454.91;5023664;28;20237;-72
2021/12/23 08:36:08;;;;;;;22.67;13.87;;;;;;;-0.02;74.48;100457.56;5021224;28;20202;-71
2021/12/23 08:38:36;;;;;;;19.97;13.23;;;;;;;0.00;74.64;100455.72;5021828;28;20213;-72
2021/12/23 08:41:03;;;;;;;24.37;15.00;;;;;;;0.02;74.52;100457.44;5021598;28;20222;-71
2021/12/23 08:43:29;;;;;;;19.23;13.50;;;;;;;0.03;74.41;100457.41;5015167;28;20272;-72
2021/12/23 08:45:56;;;;;;;19.93;12.23;;;;;;;0.06;74.29;100452.13;5017133;28;20691;-72
2021/12/23 08:48:22;;;;;;;17.60;12.43;;;;;;;0.09;74.56;100469.53;5017934;28;20202;-72
2021/12/23 08:50:49;;;;;;;22.17;13.83;;;;;;;0.14;74.59;100472.91;5021869;28;20668;-72
2021/12/23 08:53:15;;;;;;;20.33;14.43;;;;;;;0.15;74.25;100472.00;5018873;28;20229;-72
2021/12/23 08:55:43;;;;;;;18.80;13.17;;;;;;;0.16;74.13;100481.59;5020519;28;20229;-72
2021/12/23 08:58:10;;;;;;;21.27;13.50;;;;;;;0.20;74.19;100485.81;5022552;28;20578;-72
2021/12/23 09:00:38;;;;;;;22.80;14.73;;;;;;;0.21;74.02;100477.06;5016030;28;20257;-72
2021/12/23 09:03:06;;;;;;;19.13;13.33;;;;;;;0.23;74.25;100472.66;5018472;28;20666;-72
2021/12/23 09:05:33;;;;;;;23.70;14.13;;;;;;;0.24;74.21;100464.78;5019068;28;20202;-71
2021/12/23 09:08:00;;;;;;;23.27;14.47;;;;;;;0.26;74.23;100468.22;5021548;28;20210;-73
2021/12/23 09:10:26;;;;;;;21.33;13.67;;;;;;;0.28;74.05;100465.56;5018801;28;20218;-72
2021/12/23 09:12:54;;;;;;;19.47;12.80;;;;;;;0.31;73.95;100475.97;5018761;28;20226;-72
2021/12/23 09:15:21;;;;;;;22.63;14.97;;;;;;;0.32;73.82;100457.59;5030278;28;20317;-72
2021/12/23 09:17:48;;;;;;;22.03;13.53;;;;;;;0.34;73.70;100441.84;5023985;28;20203;-73
2021/12/23 09:20:17;;;;;;;20.13;13.17;;;;;;;0.38;73.14;100430.38;5025556;28;20237;-72
2021/12/23 09:22:44;;;;;;;22.73;13.67;;;;;;;0.40;73.47;100418.09;5024478;28;20233;-73
2021/12/23 09:25:19;;;;;;;24.27;14.60;;;;;;;0.40;73.31;100405.00;5022073;28;20660;-72
2021/12/23 09:27:57;;;;;;;20.57;13.07;;;;;;;0.42;73.16;100397.97;5024451;28;20819;-72
2021/12/23 09:33:10;;;;;;;21.67;14.80;;;;;;;0.42;72.66;100381.38;5024728;28;20714;-72
2021/12/23 09:35:37;;;;;;;21.80;13.37;;;;;;;0.42;73.01;100379.63;5025720;28;20893;-72
2021/12/23 09:38:04;;;;;;;26.27;16.10;;;;;;;0.40;73.01;100378.81;5024263;28;20218;-72
2021/12/23 09:40:32;;;;;;;21.80;13.17;;;;;;;0.42;73.01;100365.66;5022546;28;20230;-73
2021/12/23 09:43:01;;;;;;;22.23;14.00;;;;;;;0.43;72.89;100364.78;5018652;28;20234;-72
2021/12/23 09:45:29;;;;;;;25.70;14.47;;;;;;;0.42;73.05;100348.19;5022409;28;20210;-72
2021/12/23 09:47:58;;;;;;;23.90;14.53;;;;;;;0.42;72.78;100352.56;5023186;28;20206;-72
2021/12/23 09:50:28;;;;;;;23.47;15.13;;;;;;;0.41;72.82;100369.19;5022369;28;20577;-71
2021/12/23 09:52:55;;;;;;;26.63;16.03;;;;;;;0.43;72.85;100370.88;5017243;28;20222;-72
2021/12/23 09:55:25;;;;;;;28.60;16.17;;;;;;;0.44;72.61;100382.22;5022346;28;20211;-72
2021/12/23 09:57:52;;;;;;;22.00;14.23;;;;;;;0.43;72.87;100370.88;5018494;28;20624;-72
2021/12/23 10:00:22;;;;;;;23.20;14.80;;;;;;;0.46;72.85;100347.22;5018275;28;20694;-73
2021/12/23 10:02:51;;;;;;;23.40;13.13;;;;;;;0.47;72.77;100356.81;5019307;28;20244;-73
2021/12/23 10:05:20;;;;;;;21.43;13.10;;;;;;;0.49;72.98;100364.63;5021504;28;20574;-73
2021/12/23 10:07:48;;;;;;;20.90;14.17;;;;;;;0.49;72.65;100370.72;5018922;28;20218;-73
2021/12/23 10:10:20;;;;;;;24.70;14.13;;;;;;;0.49;72.54;100343.66;5022408;28;20297;-73
2021/12/23 10:13:17;;;;;;;24.10;15.33;;;;;;;0.47;72.71;100351.56;5019890;28;20250;-73
2021/12/23 10:38:17;;;;;;;24.87;14.80;;;;;;;0.56;72.67;100321.59;5040204;28;20223;-71
2021/12/23 10:40:46;;;;;;;28.50;16.43;;;;;;;0.55;72.73;100320.75;5040061;28;20202;-70
2021/12/23 10:43:25;;;;;;;26.80;16.43;;;;;;;0.56;72.95;100316.38;5041856;28;20221;-71
2021/12/23 10:45:55;;;;;;;21.70;14.73;;;;;;;0.61;72.29;100311.88;5039320;28;20202;-71
2021/12/23 10:48:23;;;;;;;22.10;14.83;;;;;;;0.59;72.62;100309.28;5044431;22;20289;-81
2021/12/23 10:50:57;;;;;;;21.40;14.57;;;;;;;0.61;72.66;100307.47;5021822;28;20237;-84
2021/12/23 10:53:43;;;;;;;27.53;15.53;;;;;;;0.60;72.81;100295.28;5021742;28;20225;-81
2021/12/23 10:59:07;;;;;;;23.40;13.97;;;;;;;0.66;72.62;100283.78;5023422;28;20241;-81
2021/12/23 11:01:37;;;;;;;23.83;14.57;;;;;;;0.67;72.68;100283.75;5019531;28;20573;-81
2021/12/23 11:04:06;;;;;;;23.27;14.90;;;;;;;0.66;72.17;100271.53;5020258;28;20238;-82
2021/12/23 11:06:39;;;;;;;27.20;15.73;;;;;;;0.68;72.65;100269.72;5018533;28;20746;-81
2021/12/23 11:09:37;;;;;;;23.60;15.33;;;;;;;0.69;72.39;100260.09;5021904;28;20226;-81
2021/12/23 11:35:50;;;;;;;24.20;14.83;;;;;;;0.90;72.71;100230.59;5031132;28;20738;-82
2021/12/23 11:38:28;;;;;;;25.63;15.80;;;;;;;0.93;71.96;100230.53;5030572;28;20599;-82
2021/12/23 11:41:03;;;;;;;25.90;15.73;;;;;;;0.94;72.04;100220.88;5034968;28;20576;-82
2021/12/23 11:43:46;;;;;;;25.93;15.70;;;;;;;0.95;72.08;100222.59;5030372;28;20210;-82
2021/12/23 11:46:13;;;;;;;25.17;16.67;;;;;;;0.96;71.53;100219.09;5018900;28;20231;-81
2021/12/23 11:48:43;;;;;;;23.10;14.57;;;;;;;0.99;71.81;100204.13;5018400;28;20688;-79
2021/12/23 11:51:15;;;;;;;22.47;14.97;;;;;;;1.00;71.79;100205.84;5015768;28;20671;-82
2021/12/23 11:53:43;;;;;;;27.43;17.70;;;;;;;0.99;71.45;100195.41;5017646;28;20223;-83
2021/12/23 11:56:13;;;;;;;20.80;15.17;;;;;;;1.02;71.56;100198.78;5014306;28;20206;-81
2021/12/23 11:58:43;;;;;;;23.63;14.73;;;;;;;1.04;71.25;100203.97;5011418;28;20219;-83
2021/12/23 12:01:12;;;;;;;25.50;14.63;;;;;;;1.01;71.08;100183.09;5015040;28;20217;-83
2021/12/23 12:03:51;;;;;;;27.67;16.33;;;;;;;1.05;71.17;100182.09;5014135;28;20212;-81
2021/12/23 12:06:20;;;;;;;23.33;14.03;;;;;;;1.07;70.96;100177.66;5023080;28;20681;-81
2021/12/23 12:08:47;;;;;;;23.23;14.57;;;;;;;1.14;70.44;100173.06;5015540;28;20234;-84
2021/12/23 12:11:18;;;;;;;25.53;15.27;;;;;;;1.12;70.69;100165.25;5016309;28;20215;-83
2021/12/23 12:13:45;;;;;;;22.93;14.97;;;;;;;1.12;70.17;100160.00;5020088;28;20279;-83
2021/12/23 12:16:35;;;;;;;25.23;15.33;;;;;;;1.14;70.51;100155.56;5016151;28;20732;-83